Time;durP1;ratioP1;P1;durP2;ratioP2;P2;SDS_P1;SDS_P2;PMS_P1;PMS_P2;Temp;Humidity;BMP_temperature;BMP_pressure;BME280_temperature;BME280_humidity;BME280_pressure;Samples;Min_cycle;Max_cycle;Signal;HPM_P1;HPM_P2
2023/05/22 00:00:06;;;;;;;;;;;;;;;;;;5062653;28;20871;-60
2023/05/22 00:02:32;;;;;;;;;;;;;;;;;;5065244;28;19916;-60
2023/05/22 00:04:59;;;;;;;;;;;;;;;;;;5059407;28;20368;-60
2023/05/22 00:07:26;;;;;;;;;;;;;;;;;;5063011;28;19921;-60
2023/05/22 00:09:52;;;;;;;;;;;;;;;;;;5060157;28;19919;-60
2023/05/22 00:12:18;;;;;;;;;;;;;;;;;;5058319;28;19919;-61
2023/05/22 00:14:44;;;;;;;;;;;;;;;;;;5050717;28;20015;-61
2023/05/22 00:17:13;;;;;;;;;;;;;;;;;;5070821;28;19912;-59
2023/05/22 00:19:39;;;;;;;;;;;;;;;;;;5071384;28;19913;-60
2023/05/22 00:22:05;;;;;;;;;;;;;;;;;;5063911;28;19965;-60
2023/05/22 00:24:31;;;;;;;;;;;;;;;;;;5054677;28;19952;-60
2023/05/22 00:26:57;;;;;;;;;;;;;;;;;;5067428;28;20003;-60
2023/05/22 00:29:23;;;;;;;;;;;;;;;;;;5070223;28;19917;-60
2023/05/22 00:31:49;;;;;;;;;;;;;;;;;;5070797;28;19958;-60
2023/05/22 00:34:15;;;;;;;;;;;;;;;;;;5066520;28;20293;-61
2023/05/22 00:36:41;;;;;;;;;;;;;;;;;;5065160;28;19912;-60
2023/05/22 00:39:08;;;;;;;;;;;;;;;;;;5060148;28;19974;-60
2023/05/22 00:41:34;;;;;;;;;;;;;;;;;;5051312;28;19955;-60
2023/05/22 00:44:00;;;;;;;;;;;;;;;;;;5054375;28;19916;-61
2023/05/22 00:46:26;;;;;;;;;;;;;;;;;;5068629;28;19938;-60
2023/05/22 00:48:52;;;;;;;;;;;;;;;;;;5071054;28;19940;-60
2023/05/22 00:51:17;;;;;;;;;;;;;;;;;;5070629;28;19912;-60
2023/05/22 00:53:43;;;;;;;;;;;;;;;;;;5072123;28;20482;-60
2023/05/22 00:56:09;;;;;;;;;;;;;;;;;;5071526;28;19913;-60
2023/05/22 00:58:36;;;;;;;;;;;;;;;;;;5071552;28;19997;-60
2023/05/22 01:01:02;;;;;;;;;;;;;;;;;;5061353;28;19924;-61
2023/05/22 01:03:28;;;;;;;;;;;;;;;;;;5065619;28;20320;-60
2023/05/22 01:05:54;;;;;;;;;;;;;;;;;;5053777;28;19959;-60
2023/05/22 01:08:20;;;;;;;;;;;;;;;;;;5052269;28;19960;-61
2023/05/22 01:10:46;;;;;;;;;;;;;;;;;;5051285;28;20352;-61
2023/05/22 01:13:12;;;;;;;;;;;;;;;;;;5051898;28;19960;-60
2023/05/22 01:15:39;;;;;;;;;;;;;;;;;;5058392;28;20019;-61
2023/05/22 01:18:05;;;;;;;;;;;;;;;;;;5066715;28;19917;-60
2023/05/22 01:20:31;;;;;;;;;;;;;;;;;;5056967;28;19944;-61
2023/05/22 01:22:59;;;;;;;;;;;;;;;;;;5071642;28;19995;-61
2023/05/22 01:25:25;;;;;;;;;;;;;;;;;;5071345;28;19913;-60
2023/05/22 01:27:51;;;;;;;;;;;;;;;;;;5070383;28;19999;-61
2023/05/22 01:30:17;;;;;;;;;;;;;;;;;;5069187;28;20007;-61
2023/05/22 01:32:43;;;;;;;;;;;;;;;;;;5065600;28;20392;-61
2023/05/22 01:35:09;;;;;;;;;;;;;;;;;;5055112;28;20011;-62
2023/05/22 01:37:35;;;;;;;;;;;;;;;;;;5056836;28;19912;-60
2023/05/22 01:40:01;;;;;;;;;;;;;;;;;;5070135;28;20312;-61
2023/05/22 01:42:27;;;;;;;;;;;;;;;;;;5073002;28;19929;-61
2023/05/22 01:44:53;;;;;;;;;;;;;;;;;;5060280;28;19978;-61
2023/05/22 01:47:19;;;;;;;;;;;;;;;;;;5062787;28;19923;-61
2023/05/22 01:49:46;;;;;;;;;;;;;;;;;;5074115;28;19912;-60
2023/05/22 01:52:12;;;;;;;;;;;;;;;;;;5061249;28;19917;-61
2023/05/22 01:54:38;;;;;;;;;;;;;;;;;;5056528;28;19919;-61
2023/05/22 01:57:03;;;;;;;;;;;;;;;;;;5069209;28;20314;-60
2023/05/22 01:59:29;;;;;;;;;;;;;;;;;;5069184;28;19952;-61
2023/05/22 02:01:55;;;;;;;;;;;;;;;;;;5070390;28;19936;-61
2023/05/22 02:04:21;;;;;;;;;;;;;;;;;;5074599;28;20054;-61
2023/05/22 02:06:47;;;;;;;;;;;;;;;;;;5066344;28;19920;-60
2023/05/22 02:09:13;;;;;;;;;;;;;;;;;;5061528;28;20376;-60
2023/05/22 02:11:39;;;;;;;;;;;;;;;;;;5072112;28;19971;-62
2023/05/22 02:14:07;;;;;;;;;;;;;;;;;;5060402;28;20011;-60
2023/05/22 02:16:33;;;;;;;;;;;;;;;;;;5071944;28;19921;-60
2023/05/22 02:19:05;;;;;;;;;;;;;;;;;;5072348;28;19920;-61
2023/05/22 02:21:30;;;;;;;;;;;;;;;;;;5073638;28;19913;-61
2023/05/22 02:23:56;;;;;;;;;;;;;;;;;;5073751;28;20481;-61
2023/05/22 02:26:22;;;;;;;;;;;;;;;;;;5068093;28;19917;-60
2023/05/22 02:28:48;;;;;;;;;;;;;;;;;;5069614;28;20232;-61
2023/05/22 02:31:15;;;;;;;;;;;;;;;;;;5071977;28;19950;-61
2023/05/22 02:33:40;;;;;;;;;;;;;;;;;;5062465;28;19908;-61
2023/05/22 02:36:09;;;;;;;;;;;;;;;;;;5072613;28;19955;-60
2023/05/22 02:38:35;;;;;;;;;;;;;;;;;;5054597;28;19958;-60
2023/05/22 02:41:01;;;;;;;;;;;;;;;;;;5062364;28;20349;-60
2023/05/22 02:43:27;;;;;;;;;;;;;;;;;;5066790;28;19931;-60
2023/05/22 02:45:53;;;;;;;;;;;;;;;;;;5058232;28;19916;-60
2023/05/22 02:48:19;;;;;;;;;;;;;;;;;;5073954;28;19913;-60
2023/05/22 02:50:47;;;;;;;;;;;;;;;;;;5066761;28;19916;-61
2023/05/22 02:53:14;;;;;;;;;;;;;;;;;;5058773;28;19920;-61
2023/05/22 02:55:40;;;;;;;;;;;;;;;;;;5067808;28;19923;-60
2023/05/22 02:58:10;;;;;;;;;;;;;;;;;;5060651;28;19912;-60
2023/05/22 03:00:36;;;;;;;;;;;;;;;;;;5063725;28;20344;-61
2023/05/22 03:03:02;;;;;;;;;;;;;;;;;;5068598;28;20053;-61
2023/05/22 03:05:28;;;;;;;;;;;;;;;;;;5057142;28;19956;-61
2023/05/22 03:07:54;;;;;;;;;;;;;;;;;;5066732;28;20025;-61
2023/05/22 03:10:20;;;;;;;;;;;;;;;;;;5065315;28;19912;-60
2023/05/22 03:12:47;;;;;;;;;;;;;;;;;;5072608;28;20391;-61
2023/05/22 03:15:13;;;;;;;;;;;;;;;;;;5068626;28;19926;-61
2023/05/22 03:17:38;;;;;;;;;;;;;;;;;;5060734;28;19912;-60
2023/05/22 03:20:05;;;;;;;;;;;;;;;;;;5066436;28;19963;-61
2023/05/22 03:22:31;;;;;;;;;;;;;;;;;;5070107;28;20095;-60
2023/05/22 03:24:57;;;;;;;;;;;;;;;;;;5071086;28;19952;-61
2023/05/22 03:27:23;;;;;;;;;;;;;;;;;;5072616;28;20007;-61
2023/05/22 03:29:49;;;;;;;;;;;;;;;;;;5065982;28;19951;-61
2023/05/22 03:32:15;;;;;;;;;;;;;;;;;;5067464;28;19916;-61
2023/05/22 03:34:41;;;;;;;;;;;;;;;;;;5054637;28;19913;-61
2023/05/22 03:37:07;;;;;;;;;;;;;;;;;;5067442;28;20325;-61
2023/05/22 03:39:33;;;;;;;;;;;;;;;;;;5062258;28;20009;-61
2023/05/22 03:42:00;;;;;;;;;;;;;;;;;;5070388;28;20035;-60
2023/05/22 03:44:25;;;;;;;;;;;;;;;;;;5072344;28;19912;-61
2023/05/22 03:46:51;;;;;;;;;;;;;;;;;;5068515;28;19920;-61
2023/05/22 03:49:17;;;;;;;;;;;;;;;;;;5058408;28;20019;-60
2023/05/22 03:51:43;;;;;;;;;;;;;;;;;;5055899;28;19923;-60
2023/05/22 03:54:09;;;;;;;;;;;;;;;;;;5067903;28;19912;-61
2023/05/22 03:56:35;;;;;;;;;;;;;;;;;;5072011;28;19916;-61
2023/05/22 03:59:01;;;;;;;;;;;;;;;;;;5071597;28;19913;-60
2023/05/22 04:01:28;;;;;;;;;;;;;;;;;;5060722;28;20352;-60
2023/05/22 04:03:54;;;;;;;;;;;;;;;;;;5059316;28;19952;-60
2023/05/22 04:06:20;;;;;;;;;;;;;;;;;;5066777;28;20009;-60
2023/05/22 04:08:46;;;;;;;;;;;;;;;;;;5062129;28;19913;-61
2023/05/22 04:11:14;;;;;;;;;;;;;;;;;;5065224;28;19920;-60
2023/05/22 04:13:40;;;;;;;;;;;;;;;;;;5069804;28;19958;-60
2023/05/22 04:16:06;;;;;;;;;;;;;;;;;;5063043;28;19920;-60
2023/05/22 04:18:32;;;;;;;;;;;;;;;;;;5061081;28;19955;-61
2023/05/22 04:20:58;;;;;;;;;;;;;;;;;;5065168;28;19917;-61
2023/05/22 04:23:24;;;;;;;;;;;;;;;;;;5071376;28;20424;-61
2023/05/22 04:25:50;;;;;;;;;;;;;;;;;;5063434;28;19919;-59
2023/05/22 04:28:16;;;;;;;;;;;;;;;;;;5060245;28;19916;-61
2023/05/22 04:30:42;;;;;;;;;;;;;;;;;;5035124;28;20659;-62
2023/05/22 04:33:08;;;;;;;;;;;;;;;;;;5066677;28;19995;-61
2023/05/22 04:35:34;;;;;;;;;;;;;;;;;;5071766;28;19908;-61
2023/05/22 04:38:05;;;;;;;;;;;;;;;;;;5063645;28;19960;-61
2023/05/22 04:40:32;;;;;;;;;;;;;;;;;;5061041;28;20387;-61
2023/05/22 04:42:58;;;;;;;;;;;;;;;;;;5061849;28;19924;-61
2023/05/22 04:45:24;;;;;;;;;;;;;;;;;;5063969;28;19927;-60
2023/05/22 04:47:51;;;;;;;;;;;;;;;;;;5062423;28;19912;-60
2023/05/22 04:50:17;;;;;;;;;;;;;;;;;;5057071;28;19939;-61
2023/05/22 04:52:43;;;;;;;;;;;;;;;;;;5069172;28;19960;-61
2023/05/22 04:55:10;;;;;;;;;;;;;;;;;;5064551;28;20373;-61
2023/05/22 04:57:36;;;;;;;;;;;;;;;;;;5063460;28;19912;-62
2023/05/22 05:00:03;;;;;;;;;;;;;;;;;;5055580;28;20001;-61
2023/05/22 05:02:29;;;;;;;;;;;;;;;;;;5058052;28;20291;-61
2023/05/22 05:04:55;;;;;;;;;;;;;;;;;;5066051;28;19956;-61
2023/05/22 05:07:22;;;;;;;;;;;;;;;;;;5071659;28;20612;-60
2023/05/22 05:09:48;;;;;;;;;;;;;;;;;;5071340;28;20292;-61
2023/05/22 05:12:14;;;;;;;;;;;;;;;;;;5066649;28;19912;-61
2023/05/22 05:14:40;;;;;;;;;;;;;;;;;;5069491;28;20020;-61
2023/05/22 05:17:06;;;;;;;;;;;;;;;;;;5059186;28;19916;-61
2023/05/22 05:19:33;;;;;;;;;;;;;;;;;;5063691;28;19913;-60
2023/05/22 05:21:59;;;;;;;;;;;;;;;;;;5061382;28;19930;-60
2023/05/22 05:24:24;;;;;;;;;;;;;;;;;;5073133;28;20512;-60
2023/05/22 05:26:51;;;;;;;;;;;;;;;;;;5053723;28;19912;-61
2023/05/22 05:29:17;;;;;;;;;;;;;;;;;;5073747;28;20376;-61
2023/05/22 05:31:43;;;;;;;;;;;;;;;;;;5061817;28;19923;-61
2023/05/22 05:34:09;;;;;;;;;;;;;;;;;;5055098;28;19912;-60
2023/05/22 05:36:34;;;;;;;;;;;;;;;;;;5064124;28;19927;-60
2023/05/22 05:39:00;;;;;;;;;;;;;;;;;;5073971;28;19912;-61
2023/05/22 05:41:26;;;;;;;;;;;;;;;;;;5073318;28;19944;-60
2023/05/22 05:43:52;;;;;;;;;;;;;;;;;;5068594;28;19968;-60
2023/05/22 05:46:18;;;;;;;;;;;;;;;;;;5060604;28;19956;-61
2023/05/22 05:48:44;;;;;;;;;;;;;;;;;;5058089;28;19920;-61
2023/05/22 05:51:10;;;;;;;;;;;;;;;;;;5069652;28;19959;-61
2023/05/22 05:53:36;;;;;;;;;;;;;;;;;;5058249;28;19970;-60
2023/05/22 05:56:02;;;;;;;;;;;;;;;;;;5074970;28;19955;-64
2023/05/22 05:58:28;;;;;;;;;;;;;;;;;;5050060;28;20273;-64
2023/05/22 06:00:54;;;;;;;;;;;;;;;;;;5054286;28;19909;-64
2023/05/22 06:03:20;;;;;;;;;;;;;;;;;;5074043;28;20340;-65
2023/05/22 06:05:46;;;;;;;;;;;;;;;;;;5074835;28;20704;-64
2023/05/22 06:08:12;;;;;;;;;;;;;;;;;;5073592;28;19916;-64
2023/05/22 06:10:38;;;;;;;;;;;;;;;;;;5074315;28;20449;-64
2023/05/22 06:13:04;;;;;;;;;;;;;;;;;;5073058;28;19908;-64
2023/05/22 06:15:30;;;;;;;;;;;;;;;;;;5072711;28;19994;-64
2023/05/22 06:17:56;;;;;;;;;;;;;;;;;;5081051;28;20330;-64
2023/05/22 06:20:23;;;;;;;;;;;;;;;;;;5066728;28;20045;-63
2023/05/22 06:22:50;;;;;;;;;;;;;;;;;;5072823;28;20338;-64
2023/05/22 06:25:16;;;;;;;;;;;;;;;;;;5063891;28;20289;-63
2023/05/22 06:27:42;;;;;;;;;;;;;;;;;;5069375;28;19952;-64
2023/05/22 06:30:07;;;;;;;;;;;;;;;;;;5071565;28;19961;-64
2023/05/22 06:32:33;;;;;;;;;;;;;;;;;;5073238;28;20395;-63
2023/05/22 06:34:59;;;;;;;;;;;;;;;;;;5063984;28;19947;-64
2023/05/22 06:37:25;;;;;;;;;;;;;;;;;;5070461;28;19979;-64
2023/05/22 06:39:51;;;;;;;;;;;;;;;;;;5073385;28;19951;-63
2023/05/22 06:42:17;;;;;;;;;;;;;;;;;;5072250;28;19998;-63
2023/05/22 06:44:43;;;;;;;;;;;;;;;;;;5067947;28;19917;-63
2023/05/22 06:47:09;;;;;;;;;;;;;;;;;;5072320;28;20276;-63
2023/05/22 06:49:35;;;;;;;;;;;;;;;;;;5042579;28;19944;-63
2023/05/22 06:52:01;;;;;;;;;;;;;;;;;;5072874;28;19913;-63
2023/05/22 06:54:28;;;;;;;;;;;;;;;;;;5054225;28;19917;-63
2023/05/22 06:56:54;;;;;;;;;;;;;;;;;;5051635;28;19912;-63
2023/05/22 06:59:20;;;;;;;;;;;;;;;;;;5069340;28;20323;-63
2023/05/22 07:01:45;;;;;;;;;;;;;;;;;;5070840;28;19913;-63
2023/05/22 07:04:12;;;;;;;;;;;;;;;;;;5068065;28;20005;-63
2023/05/22 07:06:40;;;;;;;;;;;;;;;;;;5049594;28;19919;-64
2023/05/22 07:09:06;;;;;;;;;;;;;;;;;;5066100;28;20411;-63
2023/05/22 07:11:32;;;;;;;;;;;;;;;;;;5072463;28;19967;-63
2023/05/22 07:13:58;;;;;;;;;;;;;;;;;;5062432;28;19943;-64
2023/05/22 07:16:24;;;;;;;;;;;;;;;;;;5069921;28;19956;-64
2023/05/22 07:18:50;;;;;;;;;;;;;;;;;;5073477;28;20387;-63
2023/05/22 07:21:16;;;;;;;;;;;;;;;;;;5045800;28;19964;-63
2023/05/22 07:23:42;;;;;;;;;;;;;;;;;;5055996;28;19927;-64
2023/05/22 07:26:08;;;;;;;;;;;;;;;;;;5053591;28;19913;-63
2023/05/22 07:28:34;;;;;;;;;;;;;;;;;;5071695;28;20340;-63
2023/05/22 07:31:00;;;;;;;;;;;;;;;;;;5059045;28;19952;-64
2023/05/22 07:33:26;;;;;;;;;;;;;;;;;;5069133;28;19912;-63
2023/05/22 07:35:52;;;;;;;;;;;;;;;;;;5072196;28;20427;-64
2023/05/22 07:38:18;;;;;;;;;;;;;;;;;;5073114;28;19908;-64
2023/05/22 07:40:44;;;;;;;;;;;;;;;;;;5056843;28;19940;-64
2023/05/22 07:43:10;;;;;;;;;;;;;;;;;;5062965;28;19948;-64
2023/05/22 07:45:37;;;;;;;;;;;;;;;;;;5052646;28;19913;-65
2023/05/22 07:48:03;;;;;;;;;;;;;;;;;;5052976;28;20029;-64
2023/05/22 07:50:31;;;;;;;;;;;;;;;;;;5052286;28;19916;-64
2023/05/22 07:52:57;;;;;;;;;;;;;;;;;;5053084;28;19908;-64
2023/05/22 07:55:23;;;;;;;;;;;;;;;;;;5057165;28;19924;-64
2023/05/22 07:57:49;;;;;;;;;;;;;;;;;;5063002;28;20007;-64
2023/05/22 08:00:15;;;;;;;;;;;;;;;;;;5072120;28;19961;-62
2023/05/22 08:02:41;;;;;;;;;;;;;;;;;;5071845;28;19920;-64
2023/05/22 08:05:07;;;;;;;;;;;;;;;;;;5072444;28;19919;-63
2023/05/22 08:07:33;;;;;;;;;;;;;;;;;;5072389;28;20384;-65
2023/05/22 08:09:59;;;;;;;;;;;;;;;;;;5071574;28;20088;-64
2023/05/22 08:12:25;;;;;;;;;;;;;;;;;;5062508;28;19913;-64
2023/05/22 08:14:51;;;;;;;;;;;;;;;;;;5053196;28;19927;-63
2023/05/22 08:17:17;;;;;;;;;;;;;;;;;;5055698;28;20275;-63
2023/05/22 08:19:43;;;;;;;;;;;;;;;;;;5072051;28;20149;-64
2023/05/22 08:22:09;;;;;;;;;;;;;;;;;;5070588;28;19962;-64
2023/05/22 08:24:35;;;;;;;;;;;;;;;;;;5072102;28;20344;-64
2023/05/22 08:27:01;;;;;;;;;;;;;;;;;;5064348;28;19936;-64
2023/05/22 08:29:27;;;;;;;;;;;;;;;;;;5063433;28;19920;-64
2023/05/22 08:31:55;;;;;;;;;;;;;;;;;;5072057;28;20028;-64
2023/05/22 08:34:21;;;;;;;;;;;;;;;;;;5057453;28;19917;-62
2023/05/22 08:36:48;;;;;;;;;;;;;;;;;;5072012;28;19953;-64
2023/05/22 08:39:14;;;;;;;;;;;;;;;;;;5072165;28;19954;-63
2023/05/22 08:41:42;;;;;;;;;;;;;;;;;;5057296;28;19963;-64
2023/05/22 08:44:09;;;;;;;;;;;;;;;;;;5052239;28;19921;-64
2023/05/22 08:46:36;;;;;;;;;;;;;;;;;;5052570;28;20039;-63
2023/05/22 08:49:03;;;;;;;;;;;;;;;;;;5056342;28;19967;-64
2023/05/22 08:51:30;;;;;;;;;;;;;;;;;;5060523;28;19917;-64
2023/05/22 08:53:56;;;;;;;;;;;;;;;;;;5056369;28;20339;-64
2023/05/22 08:56:22;;;;;;;;;;;;;;;;;;5073251;28;19921;-63
2023/05/22 08:58:48;;;;;;;;;;;;;;;;;;5057262;28;20376;-64
2023/05/22 09:01:14;;;;;;;;;;;;;;;;;;5058293;28;19953;-63
2023/05/22 09:03:40;;;;;;;;;;;;;;;;;;5074403;28;20312;-64
2023/05/22 09:06:08;;;;;;;;;;;;;;;;;;5073688;28;19918;-64
2023/05/22 09:08:34;;;;;;;;;;;;;;;;;;5075621;28;20363;-63
2023/05/22 09:11:00;;;;;;;;;;;;;;;;;;5067061;28;20361;-63
2023/05/22 09:13:26;;;;;;;;;;;;;;;;;;5075393;28;19954;-63
2023/05/22 09:15:52;;;;;;;;;;;;;;;;;;5073619;28;19958;-63
2023/05/22 09:18:18;;;;;;;;;;;;;;;;;;5067441;28;19916;-64
2023/05/22 09:20:44;;;;;;;;;;;;;;;;;;5060008;28;20362;-63
2023/05/22 09:23:10;;;;;;;;;;;;;;;;;;5057997;28;19960;-63
2023/05/22 09:25:35;;;;;;;;;;;;;;;;;;5055516;28;19916;-63
2023/05/22 09:28:01;;;;;;;;;;;;;;;;;;5057622;28;19913;-64
2023/05/22 09:30:27;;;;;;;;;;;;;;;;;;5069076;28;19952;-64
2023/05/22 09:32:53;;;;;;;;;;;;;;;;;;5064533;28;20406;-64
2023/05/22 09:35:19;;;;;;;;;;;;;;;;;;5055645;28;19916;-64
2023/05/22 09:37:45;;;;;;;;;;;;;;;;;;5057113;28;20038;-63
2023/05/22 09:40:12;;;;;;;;;;;;;;;;;;5055174;28;20343;-63
2023/05/22 09:42:38;;;;;;;;;;;;;;;;;;5063070;28;19920;-63
2023/05/22 09:45:04;;;;;;;;;;;;;;;;;;5092893;28;19955;-64
2023/05/22 09:47:30;;;;;;;;;;;;;;;;;;5061857;28;19912;-64
2023/05/22 09:49:57;;;;;;;;;;;;;;;;;;5066949;28;19951;-63
2023/05/22 09:52:23;;;;;;;;;;;;;;;;;;5071923;28;19966;-64
2023/05/22 09:54:49;;;;;;;;;;;;;;;;;;5038080;28;20054;-64
2023/05/22 09:57:15;;;;;;;;;;;;;;;;;;5070502;28;19919;-63
2023/05/22 09:59:41;;;;;;;;;;;;;;;;;;5074652;28;19944;-63
2023/05/22 10:02:07;;;;;;;;;;;;;;;;;;5063419;28;20019;-63
2023/05/22 10:04:33;;;;;;;;;;;;;;;;;;5072578;28;20027;-64
2023/05/22 10:07:00;;;;;;;;;;;;;;;;;;5067531;28;20281;-64
2023/05/22 10:09:29;;;;;;;;;;;;;;;;;;5066325;28;20003;-64
2023/05/22 10:11:55;;;;;;;;;;;;;;;;;;5059046;28;20365;-64
2023/05/22 10:14:21;;;;;;;;;;;;;;;;;;5066961;28;20007;-64
2023/05/22 10:16:47;;;;;;;;;;;;;;;;;;5072048;28;20038;-64
2023/05/22 10:19:13;;;;;;;;;;;;;;;;;;5062878;28;19924;-64
2023/05/22 10:21:39;;;;;;;;;;;;;;;;;;5060292;28;19927;-63
2023/05/22 10:24:05;;;;;;;;;;;;;;;;;;5070404;28;19920;-63
2023/05/22 10:26:30;;;;;;;;;;;;;;;;;;5074470;28;19947;-63
2023/05/22 10:28:56;;;;;;;;;;;;;;;;;;5069965;28;19935;-64
2023/05/22 10:31:22;;;;;;;;;;;;;;;;;;5069663;28;19999;-63
2023/05/22 10:33:48;;;;;;;;;;;;;;;;;;5070131;28;19919;-63
2023/05/22 10:36:14;;;;;;;;;;;;;;;;;;5059870;28;19923;-63
2023/05/22 10:38:40;;;;;;;;;;;;;;;;;;5068832;28;19952;-63
2023/05/22 10:41:06;;;;;;;;;;;;;;;;;;5069991;28;19951;-64
2023/05/22 10:43:32;;;;;;;;;;;;;;;;;;5064145;28;19951;-64
2023/05/22 10:45:58;;;;;;;;;;;;;;;;;;5068467;28;19947;-63
2023/05/22 10:48:24;;;;;;;;;;;;;;;;;;5060044;28;20435;-63
2023/05/22 10:50:53;;;;;;;;;;;;;;;;;;5076760;28;20482;-63
2023/05/22 10:53:22;;;;;;;;;;;;;;;;;;5073991;28;19920;-63
2023/05/22 10:55:48;;;;;;;;;;;;;;;;;;5065039;28;19913;-63
2023/05/22 10:58:14;;;;;;;;;;;;;;;;;;5066374;28;19950;-63
2023/05/22 11:00:40;;;;;;;;;;;;;;;;;;5063313;28;20477;-63
2023/05/22 11:03:06;;;;;;;;;;;;;;;;;;5060299;28;19920;-63
2023/05/22 11:05:35;;;;;;;;;;;;;;;;;;5063704;28;20318;-63
2023/05/22 11:08:01;;;;;;;;;;;;;;;;;;5059438;28;19913;-63
2023/05/22 11:10:26;;;;;;;;;;;;;;;;;;5060784;28;20383;-63
2023/05/22 11:12:52;;;;;;;;;;;;;;;;;;5066588;28;19957;-64
2023/05/22 11:15:18;;;;;;;;;;;;;;;;;;5063648;28;20356;-63
2023/05/22 11:17:49;;;;;;;;;;;;;;;;;;5067104;28;20004;-64
2023/05/22 11:20:15;;;;;;;;;;;;;;;;;;5055347;28;19920;-64
2023/05/22 11:22:41;;;;;;;;;;;;;;;;;;5066748;28;20060;-64
2023/05/22 11:25:07;;;;;;;;;;;;;;;;;;5069223;28;20364;-63
2023/05/22 11:27:33;;;;;;;;;;;;;;;;;;5071230;28;19931;-63
2023/05/22 11:30:00;;;;;;;;;;;;;;;;;;5067663;28;19951;-59
2023/05/22 11:32:26;;;;;;;;;;;;;;;;;;5058858;28;19917;-59
2023/05/22 11:34:52;;;;;;;;;;;;;;;;;;5066331;28;19951;-59
2023/05/22 11:37:18;;;;;;;;;;;;;;;;;;5057424;28;19986;-58
2023/05/22 11:39:44;;;;;;;;;;;;;;;;;;5065795;28;19920;-60
2023/05/22 11:42:10;;;;;;;;;;;;;;;;;;5069965;28;19935;-60
2023/05/22 11:44:36;;;;;;;;;;;;;;;;;;5048969;28;19971;-59
2023/05/22 11:47:03;;;;;;;;;;;;;;;;;;5062334;28;19912;-60
2023/05/22 11:49:28;;;;;;;;;;;;;;;;;;5068771;28;19912;-59
2023/05/22 11:51:54;;;;;;;;;;;;;;;;;;5062433;28;20284;-58
2023/05/22 11:54:21;;;;;;;;;;;;;;;;;;5065599;28;19917;-59
2023/05/22 11:56:46;;;;;;;;;;;;;;;;;;5061806;28;19981;-58
2023/05/22 11:59:12;;;;;;;;;;;;;;;;;;5070719;28;20430;-59
2023/05/22 12:01:38;;;;;;;;;;;;;;;;;;5065702;28;19912;-59
2023/05/22 12:04:04;;;;;;;;;;;;;;;;;;5064780;28;20277;-59
2023/05/22 12:06:32;;;;;;;;;;;;;;;;;;5065700;28;20382;-59
2023/05/22 12:08:58;;;;;;;;;;;;;;;;;;5052383;28;20382;-59
2023/05/22 12:11:23;;;;;;;;;;;;;;;;;;5056881;28;19956;-59
2023/05/22 12:13:50;;;;;;;;;;;;;;;;;;5062292;28;19920;-59
2023/05/22 12:16:16;;;;;;;;;;;;;;;;;;5068283;28;19931;-60
2023/05/22 12:18:42;;;;;;;;;;;;;;;;;;5061477;28;19943;-59
2023/05/22 12:21:08;;;;;;;;;;;;;;;;;;5061329;28;19974;-59
2023/05/22 12:23:34;;;;;;;;;;;;;;;;;;5070089;28;19959;-59
2023/05/22 12:26:00;;;;;;;;;;;;;;;;;;5067285;28;20376;-59
2023/05/22 12:28:26;;;;;;;;;;;;;;;;;;5063321;28;19912;-59
2023/05/22 12:30:52;;;;;;;;;;;;;;;;;;5070283;28;19955;-59
2023/05/22 12:33:19;;;;;;;;;;;;;;;;;;5071262;28;19919;-60
2023/05/22 12:35:45;;;;;;;;;;;;;;;;;;5061076;28;19912;-60
2023/05/22 12:38:12;;;;;;;;;;;;;;;;;;5051474;28;19955;-60
2023/05/22 12:40:38;;;;;;;;;;;;;;;;;;5057728;28;19912;-59
2023/05/22 12:43:04;;;;;;;;;;;;;;;;;;5064998;28;19967;-59
2023/05/22 12:45:30;;;;;;;;;;;;;;;;;;5070603;28;20004;-60
2023/05/22 12:47:56;;;;;;;;;;;;;;;;;;5065170;28;20007;-59
2023/05/22 12:50:21;;;;;;;;;;;;;;;;;;5061715;28;19952;-60
2023/05/22 12:52:47;;;;;;;;;;;;;;;;;;5043701;28;19961;-61
2023/05/22 12:55:13;;;;;;;;;;;;;;;;;;5067050;28;20001;-59
2023/05/22 12:57:39;;;;;;;;;;;;;;;;;;5051282;28;20055;-59
2023/05/22 13:00:05;;;;;;;;;;;;;;;;;;5066405;28;19962;-59
2023/05/22 13:02:31;;;;;;;;;;;;;;;;;;5052943;28;19978;-59
2023/05/22 13:04:57;;;;;;;;;;;;;;;;;;5062635;28;19923;-60
2023/05/22 13:07:23;;;;;;;;;;;;;;;;;;5064108;28;20180;-59
2023/05/22 13:09:49;;;;;;;;;;;;;;;;;;5063674;28;19961;-60
2023/05/22 13:12:15;;;;;;;;;;;;;;;;;;5060959;28;20368;-59
2023/05/22 13:14:41;;;;;;;;;;;;;;;;;;5064079;28;20008;-60
2023/05/22 13:17:07;;;;;;;;;;;;;;;;;;5065254;28;19951;-59
2023/05/22 13:19:33;;;;;;;;;;;;;;;;;;5059635;28;19913;-59
2023/05/22 13:21:59;;;;;;;;;;;;;;;;;;5058616;28;20017;-59
2023/05/22 13:24:25;;;;;;;;;;;;;;;;;;5056622;28;20305;-60
2023/05/22 13:26:51;;;;;;;;;;;;;;;;;;5064847;28;19963;-60
2023/05/22 13:29:17;;;;;;;;;;;;;;;;;;5060543;28;19952;-59
2023/05/22 13:31:43;;;;;;;;;;;;;;;;;;5057757;28;19923;-59
2023/05/22 13:34:09;;;;;;;;;;;;;;;;;;5063163;28;20023;-59
2023/05/22 13:36:35;;;;;;;;;;;;;;;;;;5057735;28;19920;-59
2023/05/22 13:39:00;;;;;;;;;;;;;;;;;;5060061;28;19920;-59
2023/05/22 13:41:27;;;;;;;;;;;;;;;;;;5065608;28;20372;-59
2023/05/22 13:43:52;;;;;;;;;;;;;;;;;;5071808;28;19916;-59
2023/05/22 13:46:19;;;;;;;;;;;;;;;;;;5068415;28;19939;-60
2023/05/22 13:48:45;;;;;;;;;;;;;;;;;;5066886;28;19913;-59
2023/05/22 13:51:11;;;;;;;;;;;;;;;;;;5058848;28;20673;-59
2023/05/22 13:53:37;;;;;;;;;;;;;;;;;;5064422;28;19969;-59
2023/05/22 13:56:03;;;;;;;;;;;;;;;;;;5070006;28;19912;-59
2023/05/22 13:58:29;;;;;;;;;;;;;;;;;;5064178;28;19917;-60
2023/05/22 14:00:55;;;;;;;;;;;;;;;;;;5061508;28;20745;-60
2023/05/22 14:03:21;;;;;;;;;;;;;;;;;;5058821;28;19967;-60
2023/05/22 14:05:47;;;;;;;;;;;;;;;;;;5063709;28;19917;-60
2023/05/22 14:08:13;;;;;;;;;;;;;;;;;;5045278;28;19917;-59
2023/05/22 14:10:39;;;;;;;;;;;;;;;;;;5072154;28;19970;-60
2023/05/22 14:13:05;;;;;;;;;;;;;;;;;;5064751;28;19986;-60
2023/05/22 14:15:31;;;;;;;;;;;;;;;;;;5055663;28;19990;-59
2023/05/22 14:17:57;;;;;;;;;;;;;;;;;;5063881;28;20367;-60
2023/05/22 14:20:22;;;;;;;;;;;;;;;;;;5064476;28;19920;-60
2023/05/22 14:22:48;;;;;;;;;;;;;;;;;;5073133;28;19921;-59
2023/05/22 14:25:14;;;;;;;;;;;;;;;;;;5063950;28;20395;-60
2023/05/22 14:27:40;;;;;;;;;;;;;;;;;;5073104;28;19920;-60
2023/05/22 14:30:08;;;;;;;;;;;;;;;;;;5067113;28;19923;-59
2023/05/22 14:32:34;;;;;;;;;;;;;;;;;;5057375;28;20383;-59
2023/05/22 14:35:00;;;;;;;;;;;;;;;;;;5068181;28;19956;-60
2023/05/22 14:37:25;;;;;;;;;;;;;;;;;;5061507;28;19959;-59
2023/05/22 14:39:51;;;;;;;;;;;;;;;;;;5066099;28;20279;-60
2023/05/22 14:42:17;;;;;;;;;;;;;;;;;;5073012;28;19952;-59
2023/05/22 14:44:43;;;;;;;;;;;;;;;;;;5063002;28;20380;-59
2023/05/22 14:47:09;;;;;;;;;;;;;;;;;;5063411;28;19970;-59
2023/05/22 14:49:35;;;;;;;;;;;;;;;;;;5064223;28;19913;-60
2023/05/22 14:52:01;;;;;;;;;;;;;;;;;;5069429;28;19974;-58
2023/05/22 14:54:27;;;;;;;;;;;;;;;;;;5069990;28;19974;-59
2023/05/22 14:56:53;;;;;;;;;;;;;;;;;;5064552;28;19940;-59
2023/05/22 14:59:19;;;;;;;;;;;;;;;;;;5071496;28;20004;-59
2023/05/22 15:01:48;;;;;;;;;;;;;;;;;;5069633;28;19912;-60
2023/05/22 15:04:14;;;;;;;;;;;;;;;;;;5056201;28;19923;-60
2023/05/22 15:06:40;;;;;;;;;;;;;;;;;;5067357;28;20201;-60
2023/05/22 15:09:06;;;;;;;;;;;;;;;;;;5064940;28;20386;-60
2023/05/22 15:11:32;;;;;;;;;;;;;;;;;;5067280;28;20323;-59
2023/05/22 15:13:58;;;;;;;;;;;;;;;;;;5067163;28;19960;-60
2023/05/22 15:16:24;;;;;;;;;;;;;;;;;;5061675;28;19935;-60
2023/05/22 15:18:50;;;;;;;;;;;;;;;;;;5063675;28;19925;-60
2023/05/22 15:21:16;;;;;;;;;;;;;;;;;;5062014;28;19955;-60
2023/05/22 15:23:42;;;;;;;;;;;;;;;;;;5058381;28;19913;-60
2023/05/22 15:26:08;;;;;;;;;;;;;;;;;;5057676;28;19916;-60
2023/05/22 15:28:34;;;;;;;;;;;;;;;;;;5062261;28;20600;-58
2023/05/22 15:31:00;;;;;;;;;;;;;;;;;;5058743;28;19956;-59
2023/05/22 15:33:26;;;;;;;;;;;;;;;;;;5069705;28;19959;-60
2023/05/22 15:35:52;;;;;;;;;;;;;;;;;;5069711;28;19908;-61
2023/05/22 15:38:18;;;;;;;;;;;;;;;;;;5061010;28;19951;-60
2023/05/22 15:40:44;;;;;;;;;;;;;;;;;;5068989;28;20003;-59
2023/05/22 15:43:10;;;;;;;;;;;;;;;;;;5069691;28;20003;-59
2023/05/22 15:45:36;;;;;;;;;;;;;;;;;;5068981;28;19997;-59
2023/05/22 15:48:03;;;;;;;;;;;;;;;;;;5068311;28;19959;-59
2023/05/22 15:50:29;;;;;;;;;;;;;;;;;;5061682;28;19939;-59
2023/05/22 15:52:55;;;;;;;;;;;;;;;;;;5066448;28;20144;-59
2023/05/22 15:55:21;;;;;;;;;;;;;;;;;;5065883;28;19959;-58
2023/05/22 15:57:47;;;;;;;;;;;;;;;;;;5070868;28;20392;-59
2023/05/22 16:00:13;;;;;;;;;;;;;;;;;;5067149;28;19970;-59
2023/05/22 16:02:39;;;;;;;;;;;;;;;;;;5064757;28;19912;-59
2023/05/22 16:05:05;;;;;;;;;;;;;;;;;;5061220;28;22216;-59
2023/05/22 16:07:31;;;;;;;;;;;;;;;;;;5065399;28;20005;-59
2023/05/22 16:09:57;;;;;;;;;;;;;;;;;;5057474;28;20385;-59
2023/05/22 16:12:23;;;;;;;;;;;;;;;;;;5061353;28;19960;-59
2023/05/22 16:14:49;;;;;;;;;;;;;;;;;;5078965;28;19975;-58
2023/05/22 16:17:15;;;;;;;;;;;;;;;;;;5061742;28;20030;-59
2023/05/22 16:19:40;;;;;;;;;;;;;;;;;;5060501;28;19921;-59
2023/05/22 16:22:06;;;;;;;;;;;;;;;;;;5064775;28;19959;-59
2023/05/22 16:24:32;;;;;;;;;;;;;;;;;;5069789;28;19913;-59
2023/05/22 16:26:58;;;;;;;;;;;;;;;;;;5070514;28;20001;-58
2023/05/22 16:29:24;;;;;;;;;;;;;;;;;;5074963;28;19920;-59
2023/05/22 16:31:50;;;;;;;;;;;;;;;;;;5074745;28;19912;-59
2023/05/22 16:34:17;;;;;;;;;;;;;;;;;;5070657;28;19921;-59
2023/05/22 16:36:42;;;;;;;;;;;;;;;;;;5070612;28;19999;-58